Time,TemperatureF,DewpointF,PressureIn,WindDirection,WindDirectionDegrees,WindSpeedMPH,WindSpeedGustMPH,Humidity,HourlyPrecipIn,Conditions,Clouds,dailyrainin,SoftwareType,DateUTC
2013-02-16 00:05:00,30.2,7.0,30.70,West,278,0.0,0.0,37,0.00,,,0.00,weatherlink.com 1.10,2013-02-16 07:05:00,
2013-02-16 00:20:00,28.5,7.0,30.70,West,278,0.0,1.0,40,0.00,,,0.00,weatherlink.com 1.10,2013-02-16 07:20:00,
2013-02-16 00:35:00,27.7,7.0,30.70,West,278,0.0,1.0,41,0.00,,,0.00,weatherlink.com 1.10,2013-02-16 07:35:00,
2013-02-16 00:50:00,27.2,8.0,30.70,West,278,0.0,1.0,45,0.00,,,0.00,weatherlink.com 1.10,2013-02-16 07:50:00,
2013-02-16 01:05:00,26.9,6.0,30.70,West,278,0.0,1.0,42,0.00,,,0.00,weatherlink.com 1.10,2013-02-16 08:05:00,
2013-02-16 01:20:00,27.4,6.0,30.70,West,278,0.0,1.0,40,0.00,,,0.00,weatherlink.com 1.10,2013-02-16 08:20:00,
2013-02-16 01:35:00,29.3,6.0,30.70,North,358,0.0,4.0,38,0.00,,,0.00,weatherlink.com 1.10,2013-02-16 08:35:00,
2013-02-16 01:50:00,31.2,7.0,30.71,NNW,347,0.0,4.0,36,0.00,,,0.00,weatherlink.com 1.10,2013-02-16 08:50:00,
2013-02-16 02:05:00,31.7,8.0,30.71,NNE,16,0.0,2.0,37,0.00,,,0.00,weatherlink.com 1.10,2013-02-16 09:05:00,
2013-02-16 02:20:00,32.2,9.0,30.71,North,359,0.0,5.0,38,0.00,,,0.00,weatherlink.com 1.10,2013-02-16 09:20:00,
2013-02-16 02:35:00,31.9,9.0,30.71,NNE,17,1.0,2.0,38,0.00,,,0.00,weatherlink.com 1.10,2013-02-16 09:35:00,
2013-02-16 02:50:00,31.6,10.0,30.71,North,1,0.0,3.0,40,0.00,,,0.00,weatherlink.com 1.10,2013-02-16 09:50:00,
2013-02-16 03:05:00,31.2,9.0,30.71,NNE,20,1.0,3.0,40,0.00,,,0.00,weatherlink.com 1.10,2013-02-16 10:05:00,
2013-02-16 03:20:00,32.1,10.0,30.71,NE,49,0.0,8.0,39,0.00,,,0.00,weatherlink.com 1.10,2013-02-16 10:20:00,
2013-02-16 03:35:00,30.9,10.0,30.71,North,9,0.0,3.0,41,0.00,,,0.00,weatherlink.com 1.10,2013-02-16 10:35:00,
2013-02-16 03:50:00,31.4,8.0,30.70,East,86,2.0,6.0,38,0.00,,,0.00,weatherlink.com 1.10,2013-02-16 10:50:00,
2013-02-16 04:05:00,32.2,7.0,30.70,NNE,15,1.0,5.0,34,0.00,,,0.00,weatherlink.com 1.10,2013-02-16 11:05:00,
2013-02-16 04:20:00,32.3,5.0,30.70,NNE,32,0.0,6.0,32,0.00,,,0.00,weatherlink.com 1.10,2013-02-16 11:20:00,
2013-02-16 04:35:00,32.8,5.0,30.71,NNE,12,0.0,5.0,31,0.00,,,0.00,weatherlink.com 1.10,2013-02-16 11:35:00,
2013-02-16 04:50:00,32.7,5.0,30.70,NNE,19,1.0,7.0,31,0.00,,,0.00,weatherlink.com 1.10,2013-02-16 11:50:00,
2013-02-16 05:05:00,32.0,6.0,30.70,North,356,2.0,4.0,34,0.00,,,0.00,weatherlink.com 1.10,2013-02-16 12:05:00,
2013-02-16 05:20:00,31.7,6.0,30.70,North,358,0.0,5.0,33,0.00,,,0.00,weatherlink.com 1.10,2013-02-16 12:20:00,
2013-02-16 05:36:00,31.5,6.0,30.70,North,360,0.0,5.0,34,0.00,,,0.00,weatherlink.com 1.10,2013-02-16 12:36:00,
2013-02-16 05:50:00,31.3,5.0,30.70,North,3,0.0,7.0,33,0.00,,,0.00,weatherlink.com 1.10,2013-02-16 12:50:00,
2013-02-16 06:05:00,31.0,6.0,30.70,North,360,2.0,6.0,34,0.00,,,0.00,weatherlink.com 1.10,2013-02-16 13:05:00,
2013-02-16 06:20:00,30.8,5.0,30.70,NNW,336,0.0,3.0,34,0.00,,,0.00,weatherlink.com 1.10,2013-02-16 13:20:00,
2013-02-16 06:36:00,30.0,5.0,30.70,NNW,336,0.0,1.0,35,0.00,,,0.00,weatherlink.com 1.10,2013-02-16 13:36:00,
2013-02-16 06:50:00,29.4,4.0,30.70,ESE,113,0.0,1.0,34,0.00,,,0.00,weatherlink.com 1.10,2013-02-16 13:50:00,
2013-02-16 07:05:00,29.7,4.0,30.70,ESE,113,0.0,1.0,34,0.00,,,0.00,weatherlink.com 1.10,2013-02-16 14:05:00,
2013-02-16 07:21:00,30.9,5.0,30.70,North,9,0.0,4.0,33,0.00,,,0.00,weatherlink.com 1.10,2013-02-16 14:21:00,
2013-02-16 07:35:00,32.4,5.0,30.70,NNW,338,0.0,7.0,31,0.00,,,0.00,weatherlink.com 1.10,2013-02-16 14:35:00,
2013-02-16 07:50:00,33.1,3.0,30.70,NNE,22,1.0,4.0,28,0.00,,,0.00,weatherlink.com 1.10,2013-02-16 14:50:00,
2013-02-16 08:05:00,34.1,4.0,30.71,North,2,0.0,3.0,28,0.00,,,0.00,weatherlink.com 1.10,2013-02-16 15:05:00,
2013-02-16 08:21:00,36.2,3.0,30.70,NNE,28,0.0,5.0,25,0.00,,,0.00,weatherlink.com 1.10,2013-02-16 15:21:00,
2013-02-16 08:35:00,38.2,4.0,30.70,ENE,67,0.0,4.0,24,0.00,,,0.00,weatherlink.com 1.10,2013-02-16 15:35:00,
2013-02-16 08:51:00,40.5,3.0,30.70,ENE,72,0.0,8.0,21,0.00,,,0.00,weatherlink.com 1.10,2013-02-16 15:51:00,
2013-02-16 09:05:00,42.1,5.0,30.70,NE,49,3.0,5.0,21,0.00,,,0.00,weatherlink.com 1.10,2013-02-16 16:05:00,
2013-02-16 09:21:00,43.9,5.0,30.70,North,359,1.0,8.0,20,0.00,,,0.00,weatherlink.com 1.10,2013-02-16 16:21:00,
2013-02-16 09:35:00,45.5,4.0,30.69,NNE,15,2.0,9.0,18,0.00,,,0.00,weatherlink.com 1.10,2013-02-16 16:35:00,
2013-02-16 09:50:00,46.6,4.0,30.68,North,360,3.0,8.0,17,0.00,,,0.00,weatherlink.com 1.10,2013-02-16 16:50:00,
2013-02-16 10:06:00,47.6,6.0,30.68,NE,34,4.0,7.0,18,0.00,,,0.00,weatherlink.com 1.10,2013-02-16 17:06:00,
2013-02-16 10:21:00,48.2,5.0,30.68,East,91,0.0,8.0,17,0.00,,,0.00,weatherlink.com 1.10,2013-02-16 17:21:00,
2013-02-16 10:36:00,48.5,5.0,30.68,NNE,13,3.0,9.0,17,0.00,,,0.00,weatherlink.com 1.10,2013-02-16 17:36:00,
2013-02-16 10:50:00,48.8,9.0,30.68,NNE,12,1.0,7.0,20,0.00,,,0.00,weatherlink.com 1.10,2013-02-16 17:50:00,
2013-02-16 11:06:00,50.0,7.0,30.67,North,359,4.0,5.0,17,0.00,,,0.00,weatherlink.com 1.10,2013-02-16 18:06:00,
2013-02-16 11:21:00,50.1,7.0,30.66,NNW,342,0.0,10.0,17,0.00,,,0.00,weatherlink.com 1.10,2013-02-16 18:21:00,
2013-02-16 11:36:00,50.7,7.0,30.66,NNE,27,5.0,7.0,17,0.00,,,0.00,weatherlink.com 1.10,2013-02-16 18:36:00,
2013-02-16 11:51:00,51.5,6.0,30.65,North,359,3.0,8.0,16,0.00,,,0.00,weatherlink.com 1.10,2013-02-16 18:51:00,
2013-02-16 12:06:00,52.3,6.0,30.64,NNW,333,3.0,6.0,15,0.00,,,0.00,weatherlink.com 1.10,2013-02-16 19:06:00,
2013-02-16 12:21:00,53.1,8.0,30.63,NE,48,3.0,5.0,16,0.00,,,0.00,weatherlink.com 1.10,2013-02-16 19:21:00,
2013-02-16 12:36:00,54.1,7.0,30.62,North,357,3.0,5.0,15,0.00,,,0.00,weatherlink.com 1.10,2013-02-16 19:36:00,
2013-02-16 12:51:00,55.3,10.0,30.60,NNW,346,1.0,4.0,16,0.00,,,0.00,weatherlink.com 1.10,2013-02-16 19:51:00,
2013-02-16 13:06:00,55.3,8.0,30.59,NNW,342,3.0,7.0,15,0.00,,,0.00,weatherlink.com 1.10,2013-02-16 20:06:00,
2013-02-16 13:21:00,55.5,7.0,30.58,NNW,348,4.0,8.0,14,0.00,,,0.00,weatherlink.com 1.10,2013-02-16 20:21:00,
2013-02-16 13:36:00,55.5,10.0,30.56,NE,41,3.0,7.0,16,0.00,,,0.00,weatherlink.com 1.10,2013-02-16 20:36:00,
2013-02-16 13:51:00,55.9,9.0,30.55,SE,138,3.0,5.0,15,0.00,,,0.00,weatherlink.com 1.10,2013-02-16 20:51:00,
2013-02-16 14:07:00,56.5,2.0,30.54,NE,39,1.0,7.0,11,0.00,,,0.00,weatherlink.com 1.10,2013-02-16 21:07:00,
2013-02-16 14:21:00,56.6,2.0,30.53,ESE,116,1.0,7.0,11,0.00,,,0.00,weatherlink.com 1.10,2013-02-16 21:21:00,
2013-02-16 14:36:00,56.9,3.0,30.53,ESE,115,6.0,6.0,11,0.00,,,0.00,weatherlink.com 1.10,2013-02-16 21:36:00,
2013-02-16 14:52:00,56.6,-2.0,30.52,East,96,3.0,6.0,9,0.00,,,0.00,weatherlink.com 1.10,2013-02-16 21:52:00,
2013-02-16 15:06:00,56.6,2.0,30.51,SSE,150,2.0,7.0,11,0.00,,,0.00,weatherlink.com 1.10,2013-02-16 22:06:00,
2013-02-16 15:22:00,56.4,-2.0,30.51,ESE,110,1.0,6.0,9,0.00,,,0.00,weatherlink.com 1.10,2013-02-16 22:22:00,
2013-02-16 15:37:00,56.2,2.0,30.50,ESE,118,2.0,5.0,11,0.00,,,0.00,weatherlink.com 1.10,2013-02-16 22:37:00,
2013-02-16 15:52:00,56.3,4.0,30.50,ESE,118,2.0,7.0,12,0.00,,,0.00,weatherlink.com 1.10,2013-02-16 22:52:00,
2013-02-16 16:07:00,56.2,6.0,30.49,SE,135,1.0,4.0,13,0.00,,,0.00,weatherlink.com 1.10,2013-02-16 23:07:00,
2013-02-16 16:22:00,55.7,8.0,30.48,ESE,110,2.0,5.0,15,0.00,,,0.00,weatherlink.com 1.10,2013-02-16 23:22:00,
2013-02-16 16:37:00,55.2,8.0,30.48,ESE,110,0.0,4.0,15,0.00,,,0.00,weatherlink.com 1.10,2013-02-16 23:37:00,
2013-02-16 16:52:00,54.4,9.0,30.47,ESE,122,0.0,7.0,16,0.00,,,0.00,weatherlink.com 1.10,2013-02-16 23:52:00,
2013-02-16 17:07:00,53.7,8.0,30.46,ESE,109,0.0,4.0,16,0.00,,,0.00,weatherlink.com 1.10,2013-02-17 00:07:00,
2013-02-16 17:22:00,52.6,10.0,30.46,NE,48,1.0,4.0,18,0.00,,,0.00,weatherlink.com 1.10,2013-02-17 00:22:00,
2013-02-16 17:38:00,51.3,11.0,30.45,East,94,0.0,4.0,20,0.00,,,0.00,weatherlink.com 1.10,2013-02-17 00:38:00,
2013-02-16 17:52:00,49.7,10.0,30.44,North,7,0.0,2.0,20,0.00,,,0.00,weatherlink.com 1.10,2013-02-17 00:52:00,
2013-02-16 18:07:00,48.0,13.0,30.44,North,7,0.0,2.0,24,0.00,,,0.00,weatherlink.com 1.10,2013-02-17 01:07:00,
2013-02-16 18:23:00,45.1,14.0,30.44,North,7,0.0,3.0,28,0.00,,,0.00,weatherlink.com 1.10,2013-02-17 01:23:00,
2013-02-16 18:37:00,41.6,17.0,30.43,North,7,0.0,3.0,37,0.00,,,0.00,weatherlink.com 1.10,2013-02-17 01:37:00,
2013-02-16 18:53:00,37.7,19.0,30.43,North,7,0.0,1.0,47,0.00,,,0.00,weatherlink.com 1.10,2013-02-17 01:53:00,
2013-02-16 19:08:00,35.2,20.0,30.44,North,7,0.0,1.0,54,0.00,,,0.00,weatherlink.com 1.10,2013-02-17 02:08:00,
2013-02-16 19:23:00,33.4,20.0,30.44,North,7,0.0,1.0,58,0.00,,,0.00,weatherlink.com 1.10,2013-02-17 02:23:00,
2013-02-16 19:38:00,32.7,19.0,30.44,North,7,0.0,1.0,58,0.00,,,0.00,weatherlink.com 1.10,2013-02-17 02:38:00,
2013-02-16 19:53:00,32.2,19.0,30.44,North,7,0.0,1.0,59,0.00,,,0.00,weatherlink.com 1.10,2013-02-17 02:53:00,
2013-02-16 20:08:00,31.6,19.0,30.44,North,7,0.0,1.0,59,0.00,,,0.00,weatherlink.com 1.10,2013-02-17 03:08:00,
2013-02-16 20:23:00,30.7,18.0,30.44,North,7,0.0,3.0,59,0.00,,,0.00,weatherlink.com 1.10,2013-02-17 03:23:00,
2013-02-16 20:38:00,29.9,17.0,30.43,North,7,0.0,2.0,58,0.00,,,0.00,weatherlink.com 1.10,2013-02-17 03:38:00,
2013-02-16 20:53:00,29.2,17.0,30.44,North,7,0.0,3.0,60,0.00,,,0.00,weatherlink.com 1.10,2013-02-17 03:53:00,
2013-02-16 21:08:00,28.5,16.0,30.44,North,7,1.0,2.0,61,0.00,,,0.00,weatherlink.com 1.10,2013-02-17 04:08:00,
2013-02-16 21:23:00,29.0,16.0,30.44,North,7,0.0,2.0,58,0.00,,,0.00,weatherlink.com 1.10,2013-02-17 04:23:00,
2013-02-16 21:39:00,30.3,16.0,30.44,North,7,0.0,1.0,56,0.00,,,0.00,weatherlink.com 1.10,2013-02-17 04:39:00,
2013-02-16 21:53:00,30.4,16.0,30.45,North,7,0.0,2.0,55,0.00,,,0.00,weatherlink.com 1.10,2013-02-17 04:53:00,
2013-02-16 22:09:00,29.9,15.0,30.45,North,7,0.0,2.0,53,0.00,,,0.00,weatherlink.com 1.10,2013-02-17 05:09:00,
2013-02-16 22:24:00,29.8,14.0,30.44,North,7,0.0,2.0,53,0.00,,,0.00,weatherlink.com 1.10,2013-02-17 05:24:00,
2013-02-16 22:39:00,29.7,13.0,30.44,North,7,0.0,2.0,50,0.00,,,0.00,weatherlink.com 1.10,2013-02-17 05:39:00,
2013-02-16 22:54:00,29.9,14.0,30.43,North,7,0.0,2.0,51,0.00,,,0.00,weatherlink.com 1.10,2013-02-17 05:54:00,
2013-02-16 23:09:00,29.7,12.0,30.43,North,7,0.0,2.0,48,0.00,,,0.00,weatherlink.com 1.10,2013-02-17 06:09:00,
2013-02-16 23:24:00,29.6,12.0,30.42,North,7,0.0,2.0,49,0.00,,,0.00,weatherlink.com 1.10,2013-02-17 06:24:00,
2013-02-16 23:39:00,29.2,10.0,30.41,North,7,0.0,2.0,45,0.00,,,0.00,weatherlink.com 1.10,2013-02-17 06:39:00,
2013-02-16 23:54:00,28.1,12.0,30.41,North,7,0.0,2.0,51,0.00,,,0.00,weatherlink.com 1.10,2013-02-17 06:54:00,